createdAt,value
2023-01-29T00:04:05.916Z,18.80
2023-01-29T00:09:28.325Z,16.40
2023-01-29T00:14:50.274Z,53.20
2023-01-29T00:20:12.800Z,21.30
2023-01-29T00:25:34.529Z,15.70
2023-01-29T00:30:56.686Z,11.90
2023-01-29T00:36:20.195Z,13.20
2023-01-29T00:42:01.005Z,11.20
2023-01-29T00:47:33.796Z,11.60
2023-01-29T00:52:55.886Z,8.60
2023-01-29T00:58:22.633Z,12.90
2023-01-29T01:03:44.610Z,12.60
2023-01-29T01:09:25.605Z,11.40
2023-01-29T01:14:48.038Z,11.70
2023-01-29T01:20:11.350Z,9.80
2023-01-29T01:25:33.334Z,9.40
2023-01-29T01:30:55.484Z,10.90
2023-01-29T01:36:18.490Z,8.40
2023-01-29T01:41:42.736Z,9.80
2023-01-29T01:47:04.585Z,5.30
2023-01-29T01:52:26.292Z,7.30
2023-01-29T01:57:53.222Z,5.50
2023-01-29T02:03:34.998Z,6.70
2023-01-29T02:09:33.253Z,8.70
2023-01-29T02:14:56.551Z,6.40
2023-01-29T02:20:24.413Z,8.50
2023-01-29T02:26:24.134Z,14.60
2023-01-29T02:31:52.594Z,9.60
2023-01-29T02:37:15.646Z,12.20
2023-01-29T02:42:53.033Z,8.80
2023-01-29T02:48:20.332Z,6.70
2023-01-29T02:53:46.436Z,9.90
2023-01-29T02:59:13.282Z,9.40
2023-01-29T03:04:38.647Z,10.50
2023-01-29T03:10:02.299Z,7.50
2023-01-29T03:15:28.825Z,8.70
2023-01-29T03:21:33.989Z,11.50
2023-01-29T03:27:15.445Z,7.80
2023-01-29T03:32:42.826Z,18.70
2023-01-29T03:38:07.513Z,22.10
2023-01-29T03:43:42.313Z,13.80
2023-01-29T03:49:15.490Z,10.20
2023-01-29T03:55:06.842Z,9.10
2023-01-29T04:00:39.219Z,6.50
2023-01-29T04:06:12.040Z,7.20
2023-01-29T04:11:48.914Z,5.70
2023-01-29T04:17:17.435Z,6.90
2023-01-29T04:22:58.532Z,7.10
2023-01-29T04:28:54.402Z,6.90
2023-01-29T04:34:28.074Z,10.90
2023-01-29T04:40:04.797Z,9.90
2023-01-29T04:45:40.103Z,15.60
2023-01-29T04:51:25.644Z,20.70
2023-01-29T04:56:57.710Z,13.60
2023-01-29T05:02:21.345Z,15.40
2023-01-29T05:07:45.326Z,17.30
2023-01-29T05:13:11.286Z,14.30
2023-01-29T05:18:33.929Z,20.40
2023-01-29T05:24:15.054Z,11.00
2023-01-29T05:29:36.698Z,12.70
2023-01-29T05:34:58.514Z,12.50
2023-01-29T05:40:20.368Z,17.90
2023-01-29T05:45:42.816Z,16.10
2023-01-29T05:51:05.308Z,23.20
2023-01-29T05:56:27.271Z,17.40
2023-01-29T06:01:49.502Z,12.10
2023-01-29T06:07:11.084Z,24.00
2023-01-29T06:12:33.051Z,27.80
2023-01-29T06:17:55.674Z,24.40
2023-01-29T06:23:17.931Z,19.90
2023-01-29T06:28:39.806Z,13.80
2023-01-29T06:34:01.564Z,17.80
2023-01-29T06:39:23.363Z,20.10
2023-01-29T06:44:49.760Z,17.30
2023-01-29T06:50:13.218Z,13.70
2023-01-29T06:55:35.124Z,17.30
2023-01-29T07:01:08.185Z,18.80
2023-01-29T07:06:30.481Z,24.50
2023-01-29T07:11:53.453Z,29.80
2023-01-29T07:17:16.846Z,17.00
2023-01-29T07:22:38.696Z,14.10
2023-01-29T07:28:01.947Z,15.00
2023-01-29T07:33:23.718Z,14.20
2023-01-29T07:38:49.651Z,22.10
2023-01-29T07:44:11.311Z,22.20
2023-01-29T07:49:33.312Z,15.40
2023-01-29T07:54:54.937Z,15.60
2023-01-29T08:00:17.462Z,20.90
2023-01-29T08:05:39.685Z,24.10
2023-01-29T08:11:03.418Z,14.80
2023-01-29T08:16:25.443Z,24.70
2023-01-29T08:21:50.073Z,18.80
2023-01-29T08:27:12.196Z,20.00
2023-01-29T08:32:34.237Z,16.00
2023-01-29T08:37:59.548Z,19.50
2023-01-29T08:43:21.312Z,24.70
2023-01-29T08:48:43.431Z,19.00
2023-01-29T08:54:07.342Z,23.70
2023-01-29T08:59:29.205Z,14.20
2023-01-29T09:04:50.881Z,24.40
2023-01-29T09:10:13.598Z,19.80
2023-01-29T09:15:35.527Z,15.00
2023-01-29T09:20:58.448Z,14.10
2023-01-29T09:26:20.119Z,15.20
2023-01-29T09:31:42.122Z,16.70
2023-01-29T09:37:03.784Z,24.90
2023-01-29T09:42:42.024Z,20.40
2023-01-29T09:48:05.885Z,14.60
2023-01-29T09:53:39.597Z,21.30
2023-01-29T09:59:02.076Z,27.40
2023-01-29T10:04:39.191Z,63.40
2023-01-29T10:10:26.205Z,31.40
2023-01-29T10:16:03.041Z,40.10
2023-01-29T10:21:41.984Z,29.50
2023-01-29T10:27:14.506Z,24.10
2023-01-29T10:32:37.428Z,28.90
2023-01-29T10:38:09.206Z,20.50
2023-01-29T10:43:41.731Z,10.60
2023-01-29T10:49:25.714Z,23.40
2023-01-29T10:54:59.865Z,15.30
2023-01-29T11:00:31.941Z,26.40
2023-01-29T11:06:05.746Z,27.30
2023-01-29T11:11:49.346Z,24.40
2023-01-29T11:17:23.073Z,25.00
2023-01-29T11:22:53.986Z,18.80
2023-01-29T11:28:43.375Z,18.80
2023-01-29T11:34:31.525Z,18.40
2023-01-29T11:39:53.448Z,35.80
2023-01-29T11:45:30.045Z,27.30
2023-01-29T11:50:57.523Z,26.60
2023-01-29T11:56:23.816Z,27.60
2023-01-29T12:01:45.866Z,32.60
2023-01-29T12:07:13.150Z,50.90
2023-01-29T12:12:40.838Z,33.00
2023-01-29T12:18:08.605Z,16.50
2023-01-29T12:23:44.234Z,23.90
2023-01-29T12:29:17.050Z,37.20
2023-01-29T12:35:03.565Z,16.20
2023-01-29T12:40:28.612Z,23.30
2023-01-29T12:45:53.346Z,19.30
2023-01-29T12:51:20.894Z,15.00
2023-01-29T12:56:48.853Z,25.60
2023-01-29T13:02:23.020Z,21.10
2023-01-29T13:07:50.249Z,25.90
2023-01-29T13:13:37.461Z,45.40
2023-01-29T13:19:02.779Z,93.90
2023-01-29T13:24:26.063Z,48.10
2023-01-29T13:29:48.094Z,60.70
2023-01-29T13:35:14.269Z,49.10
2023-01-29T13:40:36.201Z,30.60
2023-01-29T13:45:58.156Z,42.10
2023-01-29T13:51:22.255Z,39.90
2023-01-29T13:56:59.399Z,46.00
2023-01-29T14:02:28.253Z,42.30
2023-01-29T14:07:53.166Z,78.90
2023-01-29T14:13:24.066Z,53.40
2023-01-29T14:18:45.953Z,33.80
2023-01-29T14:24:22.122Z,25.30
2023-01-29T14:29:44.164Z,21.80
2023-01-29T14:35:21.304Z,31.10
2023-01-29T14:40:46.190Z,35.20
2023-01-29T14:46:33.280Z,61.10
2023-01-29T14:51:56.796Z,57.00
2023-01-29T14:57:19.106Z,31.60
2023-01-29T15:02:43.643Z,35.80
2023-01-29T15:08:14.611Z,30.60
2023-01-29T15:13:57.163Z,39.40
2023-01-29T15:19:26.004Z,28.30
2023-01-29T15:25:02.564Z,23.70
2023-01-29T15:30:31.850Z,33.10
2023-01-29T15:36:06.720Z,28.80
2023-01-29T15:41:29.647Z,30.20
2023-01-29T15:46:57.051Z,31.10
2023-01-29T15:52:23.156Z,27.90
2023-01-29T15:57:45.206Z,30.70
2023-01-29T16:03:15.496Z,41.30
2023-01-29T16:08:39.552Z,29.30
2023-01-29T16:14:05.479Z,27.50
2023-01-29T16:19:28.956Z,29.50
2023-01-29T16:24:53.295Z,71.90
2023-01-29T16:30:16.962Z,76.10
2023-01-29T16:35:40.473Z,65.70
2023-01-29T16:41:25.980Z,49.50
2023-01-29T16:46:51.293Z,51.60
2023-01-29T16:52:19.243Z,40.00
2023-01-29T16:57:41.580Z,32.80
2023-01-29T17:03:07.455Z,43.20
2023-01-29T17:08:33.977Z,69.50
2023-01-29T17:13:57.159Z,51.30
2023-01-29T17:19:22.139Z,58.40
2023-01-29T17:24:44.129Z,75.40
2023-01-29T17:30:06.880Z,67.20
2023-01-29T17:35:29.038Z,62.00
2023-01-29T17:40:53.293Z,53.10
2023-01-29T17:46:17.553Z,54.80
2023-01-29T17:51:42.430Z,51.10
2023-01-29T17:57:04.953Z,52.20
2023-01-29T18:02:28.904Z,50.80
2023-01-29T18:07:52.428Z,55.70
2023-01-29T18:13:14.445Z,55.90
2023-01-29T18:18:39.387Z,50.80
2023-01-29T18:24:08.642Z,54.40
2023-01-29T18:29:30.583Z,45.30
2023-01-29T18:34:52.400Z,49.90
2023-01-29T18:40:17.288Z,57.40
2023-01-29T18:45:39.353Z,47.40
2023-01-29T18:51:02.909Z,48.90
2023-01-29T18:56:24.832Z,92.00
2023-01-29T19:01:47.068Z,70.20
2023-01-29T19:07:13.513Z,67.30
2023-01-29T19:12:35.446Z,60.80
2023-01-29T19:17:57.299Z,56.10
2023-01-29T19:23:19.884Z,54.40
2023-01-29T19:28:42.433Z,60.20
2023-01-29T19:34:06.482Z,44.90
2023-01-29T19:39:32.792Z,54.50
2023-01-29T19:44:54.343Z,48.10
2023-01-29T19:50:17.002Z,56.70
2023-01-29T19:55:41.212Z,74.80
2023-01-29T20:01:08.446Z,59.40
2023-01-29T20:06:31.493Z,70.50
2023-01-29T20:11:54.023Z,128.90
2023-01-29T20:17:17.160Z,67.00
2023-01-29T20:22:41.915Z,67.70
2023-01-29T20:28:08.044Z,46.20
2023-01-29T20:33:30.271Z,55.60
2023-01-29T20:38:53.504Z,57.10
2023-01-29T20:44:15.239Z,54.00
2023-01-29T20:49:37.161Z,51.00
2023-01-29T20:54:59.370Z,55.10
2023-01-29T21:00:21.722Z,52.10
2023-01-29T21:05:44.061Z,67.40
2023-01-29T21:11:07.697Z,67.00
2023-01-29T21:16:30.075Z,57.30
2023-01-29T21:21:52.357Z,51.00
2023-01-29T21:27:13.947Z,49.10
2023-01-29T21:32:35.808Z,52.60
2023-01-29T21:37:58.037Z,46.20
2023-01-29T21:43:19.778Z,41.00
2023-01-29T21:48:41.703Z,47.20
2023-01-29T21:54:03.738Z,46.50
2023-01-29T21:59:25.893Z,49.50
2023-01-29T22:04:52.447Z,44.30
2023-01-29T22:10:15.024Z,40.20
2023-01-29T22:15:37.122Z,41.60
2023-01-29T22:21:01.081Z,46.60
2023-01-29T22:26:22.796Z,38.80
2023-01-29T22:31:44.509Z,38.10
2023-01-29T22:37:06.464Z,38.90
2023-01-29T22:42:28.508Z,35.20
2023-01-29T22:47:50.507Z,35.90
2023-01-29T22:53:12.504Z,37.50
2023-01-29T22:58:36.946Z,30.60
2023-01-29T23:03:59.168Z,34.20
2023-01-29T23:09:20.911Z,36.00
2023-01-29T23:14:43.201Z,34.60
2023-01-29T23:20:05.534Z,36.90
2023-01-29T23:25:47.585Z,34.80
2023-01-29T23:31:09.149Z,33.70
2023-01-29T23:36:31.344Z,36.70
2023-01-29T23:41:53.195Z,28.20
2023-01-29T23:47:15.024Z,33.20
2023-01-29T23:52:36.799Z,33.10
2023-01-29T23:57:58.614Z,29.70
